createdAt,value
2023-05-10T00:00:27.790Z,4.05
2023-05-10T00:02:59.643Z,4.47
2023-05-10T00:05:32.325Z,3.67
2023-05-10T00:08:04.293Z,4.90
2023-05-10T00:10:36.234Z,4.50
2023-05-10T00:13:08.174Z,4.25
2023-05-10T00:15:40.143Z,3.90
2023-05-10T00:18:12.131Z,3.58
2023-05-10T00:20:44.070Z,3.42
2023-05-10T00:23:15.955Z,3.33
2023-05-10T00:25:47.865Z,3.00
2023-05-10T00:28:19.694Z,2.70
2023-05-10T00:30:51.497Z,2.78
2023-05-10T00:33:23.398Z,2.45
2023-05-10T00:35:55.293Z,2.45
2023-05-10T00:38:27.374Z,2.47
2023-05-10T00:40:59.180Z,2.33
2023-05-10T00:43:35.356Z,1.98
2023-05-10T00:46:07.808Z,2.00
2023-05-10T00:48:40.053Z,1.98
2023-05-10T00:51:11.953Z,2.00
2023-05-10T00:53:46.420Z,1.90
2023-05-10T00:56:18.503Z,1.98
2023-05-10T00:58:51.085Z,1.80
2023-05-10T01:01:23.311Z,1.92
2023-05-10T01:03:58.052Z,1.98
2023-05-10T01:06:30.215Z,1.52
2023-05-10T01:09:02.100Z,1.90
2023-05-10T01:11:39.332Z,1.90
2023-05-10T01:14:11.410Z,1.92
2023-05-10T01:16:45.244Z,1.88
2023-05-10T01:19:29.100Z,2.00
2023-05-10T01:22:12.979Z,2.13
2023-05-10T01:25:32.498Z,1.80
2023-05-10T01:28:49.800Z,2.00
2023-05-10T01:31:30.682Z,1.50
2023-05-10T01:34:28.564Z,1.75
2023-05-10T01:37:08.853Z,1.90
2023-05-10T01:39:48.036Z,1.58
2023-05-10T01:42:26.851Z,1.85
2023-05-10T01:45:01.706Z,1.92
2023-05-10T01:47:59.662Z,1.80
2023-05-10T01:50:32.876Z,2.17
2023-05-10T01:53:08.862Z,1.75
2023-05-10T01:56:01.782Z,1.90
2023-05-10T01:58:35.361Z,1.88
2023-05-10T02:01:08.088Z,2.00
2023-05-10T02:03:42.450Z,1.63
2023-05-10T02:06:15.853Z,1.65
2023-05-10T02:08:50.472Z,1.77
2023-05-10T02:11:24.095Z,1.90
2023-05-10T02:13:58.265Z,2.10
2023-05-10T02:16:34.083Z,1.90
2023-05-10T02:19:07.206Z,1.95
2023-05-10T02:21:41.052Z,1.80
2023-05-10T02:24:13.990Z,1.63
2023-05-10T02:26:47.887Z,1.40
2023-05-10T02:29:20.457Z,1.90
2023-05-10T02:31:55.154Z,1.60
2023-05-10T02:34:28.626Z,1.70
2023-05-10T02:37:02.593Z,1.65
2023-05-10T02:39:34.902Z,1.58
2023-05-10T02:42:07.470Z,1.92
2023-05-10T02:44:41.981Z,1.83
2023-05-10T02:47:13.918Z,2.05
2023-05-10T02:49:46.430Z,2.05
2023-05-10T02:52:24.470Z,2.10
2023-05-10T02:54:59.460Z,2.17
2023-05-10T02:57:35.358Z,1.80
2023-05-10T03:00:08.082Z,1.80
2023-05-10T03:02:39.956Z,2.08
2023-05-10T03:05:11.923Z,1.98
2023-05-10T03:07:44.338Z,2.20
2023-05-10T03:10:17.139Z,2.00
2023-05-10T03:12:55.552Z,1.95
2023-05-10T03:15:56.614Z,2.15
2023-05-10T03:18:30.509Z,2.20
2023-05-10T03:21:08.202Z,2.33
2023-05-10T03:23:48.735Z,2.50
2023-05-10T03:26:27.578Z,2.33
2023-05-10T03:29:08.678Z,2.58
2023-05-10T03:31:40.848Z,2.53
2023-05-10T03:34:12.858Z,2.60
2023-05-10T03:36:44.760Z,2.17
2023-05-10T03:39:16.728Z,1.98
2023-05-10T03:41:57.709Z,2.08
2023-05-10T03:44:29.625Z,2.38
2023-05-10T03:47:01.581Z,2.25
2023-05-10T03:49:33.891Z,2.50
2023-05-10T03:52:06.401Z,2.80
2023-05-10T03:54:38.345Z,2.72
2023-05-10T03:57:10.867Z,2.90
2023-05-10T03:59:42.902Z,2.30
2023-05-10T04:02:14.856Z,2.63
2023-05-10T04:04:46.794Z,2.72
2023-05-10T04:07:19.223Z,1.92
2023-05-10T04:09:51.061Z,2.08
2023-05-10T04:12:22.978Z,2.22
2023-05-10T04:14:54.836Z,2.28
2023-05-10T04:17:26.699Z,2.15
2023-05-10T04:19:58.594Z,1.80
2023-05-10T04:22:30.528Z,2.35
2023-05-10T04:25:02.479Z,2.03
2023-05-10T04:27:34.660Z,2.10
2023-05-10T04:30:07.776Z,1.92
2023-05-10T04:32:39.675Z,1.77
2023-05-10T04:35:11.696Z,2.20
2023-05-10T04:37:44.222Z,2.35
2023-05-10T04:40:16.144Z,2.33
2023-05-10T04:42:48.132Z,2.70
2023-05-10T04:45:20.050Z,2.70
2023-05-10T04:47:51.883Z,2.22
2023-05-10T04:50:23.726Z,2.38
2023-05-10T04:52:55.553Z,2.70
2023-05-10T04:55:27.946Z,2.55
2023-05-10T04:58:00.149Z,2.40
2023-05-10T05:00:32.016Z,2.40
2023-05-10T05:03:04.360Z,2.03
2023-05-10T05:05:36.286Z,1.88
2023-05-10T05:08:08.240Z,2.25
2023-05-10T05:10:40.251Z,2.70
2023-05-10T05:13:13.741Z,2.80
2023-05-10T05:15:45.682Z,2.65
2023-05-10T05:18:17.622Z,2.35
2023-05-10T05:20:49.448Z,2.63
2023-05-10T05:23:21.859Z,2.50
2023-05-10T05:25:54.176Z,2.63
2023-05-10T05:28:26.150Z,2.50
2023-05-10T05:30:58.028Z,2.70
2023-05-10T05:33:29.905Z,2.30
2023-05-10T05:36:02.803Z,2.60
2023-05-10T05:38:34.647Z,2.45
2023-05-10T05:41:06.534Z,2.95
2023-05-10T05:43:38.690Z,3.40
2023-05-10T05:46:10.784Z,3.00
2023-05-10T05:48:42.710Z,2.60
2023-05-10T05:51:14.600Z,63.92
2023-05-10T05:53:46.636Z,4.00
2023-05-10T05:56:25.064Z,2.55
2023-05-10T05:58:56.893Z,2.60
2023-05-10T06:01:28.787Z,2.20
2023-05-10T06:04:00.877Z,2.67
2023-05-10T06:06:33.286Z,2.95
2023-05-10T06:09:05.187Z,2.20
2023-05-10T06:11:37.744Z,2.40
2023-05-10T06:14:10.283Z,2.80
2023-05-10T06:16:42.240Z,2.25
2023-05-10T06:19:14.120Z,2.40
2023-05-10T06:21:45.985Z,2.13
2023-05-10T06:24:17.895Z,2.08
2023-05-10T06:26:50.966Z,2.63
2023-05-10T06:29:22.873Z,2.00
2023-05-10T06:31:55.253Z,2.15
2023-05-10T06:34:27.293Z,1.90
2023-05-10T06:36:59.281Z,2.42
2023-05-10T06:39:31.122Z,2.58
2023-05-10T06:42:03.786Z,2.83
2023-05-10T06:44:38.183Z,2.35
2023-05-10T06:47:10.572Z,2.83
2023-05-10T06:49:42.509Z,2.88
2023-05-10T06:52:14.393Z,2.30
2023-05-10T06:54:46.336Z,2.15
2023-05-10T06:57:30.565Z,2.65
2023-05-10T07:00:07.530Z,2.70
2023-05-10T07:02:39.511Z,2.88
2023-05-10T07:05:11.426Z,2.60
2023-05-10T07:07:43.411Z,2.22
2023-05-10T07:10:15.428Z,2.60
2023-05-10T07:12:47.436Z,2.30
2023-05-10T07:15:19.663Z,2.15
2023-05-10T07:17:53.089Z,2.50
2023-05-10T07:20:25.141Z,2.13
2023-05-10T07:22:57.015Z,2.72
2023-05-10T07:25:28.902Z,2.72
2023-05-10T07:28:00.724Z,2.90
2023-05-10T07:30:32.739Z,2.72
2023-05-10T07:33:04.636Z,3.05
2023-05-10T07:35:37.124Z,3.08
2023-05-10T07:38:09.069Z,2.78
2023-05-10T07:40:41.089Z,3.00
2023-05-10T07:43:13.069Z,2.75
2023-05-10T07:45:44.913Z,3.08
2023-05-10T07:48:16.804Z,2.80
2023-05-10T07:50:48.698Z,2.78
2023-05-10T07:53:20.609Z,3.00
2023-05-10T07:55:55.468Z,2.80
2023-05-10T07:58:27.838Z,3.13
2023-05-10T08:00:59.661Z,3.72
2023-05-10T08:03:31.530Z,3.60
2023-05-10T08:06:03.721Z,3.17
2023-05-10T08:08:35.593Z,2.78
2023-05-10T08:11:07.491Z,3.47
2023-05-10T08:13:39.352Z,3.08
2023-05-10T08:16:11.387Z,2.88
2023-05-10T08:18:44.634Z,3.10
2023-05-10T08:21:16.993Z,2.63
2023-05-10T08:23:48.927Z,2.80
2023-05-10T08:26:32.437Z,3.10
2023-05-10T08:29:04.225Z,2.60
2023-05-10T08:31:38.444Z,2.83
2023-05-10T08:34:13.479Z,2.53
2023-05-10T08:36:45.560Z,2.20
2023-05-10T08:39:29.427Z,2.90
2023-05-10T08:42:04.971Z,2.63
2023-05-10T08:44:38.024Z,2.60
2023-05-10T08:47:11.375Z,3.67
2023-05-10T08:49:45.581Z,2.63
2023-05-10T08:52:19.680Z,2.70
2023-05-10T08:54:51.651Z,3.15
2023-05-10T08:57:23.683Z,3.10
2023-05-10T08:59:55.651Z,2.92
2023-05-10T09:02:28.071Z,3.40
2023-05-10T09:05:00.024Z,3.33
2023-05-10T09:07:34.231Z,3.42
2023-05-10T09:10:21.376Z,3.15
2023-05-10T09:12:59.786Z,2.97
2023-05-10T09:15:37.642Z,2.92
2023-05-10T09:18:11.927Z,3.03
2023-05-10T09:20:44.020Z,3.00
2023-05-10T09:23:21.708Z,2.92
2023-05-10T09:26:26.964Z,3.08
2023-05-10T09:29:00.578Z,3.00
2023-05-10T09:31:53.569Z,3.00
2023-05-10T09:34:33.813Z,3.17
2023-05-10T09:37:05.740Z,2.65
2023-05-10T09:39:38.591Z,2.80
2023-05-10T09:42:13.142Z,3.33
2023-05-10T09:44:47.287Z,3.20
2023-05-10T09:47:22.386Z,3.00
2023-05-10T09:49:57.124Z,2.30
2023-05-10T09:52:28.998Z,1.70
2023-05-10T09:55:05.723Z,1.90
2023-05-10T09:57:37.792Z,1.50
2023-05-10T10:00:14.234Z,1.40
2023-05-10T10:02:55.790Z,1.40
2023-05-10T10:05:32.301Z,1.70
2023-05-10T10:08:09.319Z,2.38
2023-05-10T10:10:41.970Z,2.28
2023-05-10T10:13:14.692Z,2.60
2023-05-10T10:15:48.635Z,2.50
2023-05-10T10:18:32.113Z,1.92
2023-05-10T10:21:04.612Z,2.08
2023-05-10T10:23:36.725Z,1.85
2023-05-10T10:26:13.663Z,2.63
2023-05-10T10:29:21.193Z,1.80
2023-05-10T10:32:27.584Z,1.67
2023-05-10T10:35:00.423Z,1.70
2023-05-10T10:37:49.283Z,1.70
2023-05-10T10:40:35.880Z,1.50
2023-05-10T10:43:28.650Z,2.30
2023-05-10T10:46:25.910Z,2.08
2023-05-10T10:49:19.145Z,1.48
2023-05-10T10:52:28.114Z,1.67
2023-05-10T10:55:02.662Z,1.63
2023-05-10T10:58:08.375Z,1.48
2023-05-10T11:00:45.575Z,1.60
2023-05-10T11:03:23.458Z,2.00
2023-05-10T11:06:01.156Z,1.75
2023-05-10T11:08:36.932Z,1.63
2023-05-10T11:11:10.521Z,1.33
2023-05-10T11:13:48.548Z,1.60
2023-05-10T11:16:24.852Z,1.52
2023-05-10T11:19:05.681Z,1.70
2023-05-10T11:21:50.197Z,1.65
2023-05-10T11:24:24.250Z,1.55
2023-05-10T11:26:56.277Z,1.63
2023-05-10T11:29:28.145Z,1.65
2023-05-10T11:32:00.667Z,1.65
2023-05-10T11:34:36.406Z,1.58
2023-05-10T11:37:08.252Z,1.80
2023-05-10T11:39:46.725Z,1.33
2023-05-10T11:42:18.616Z,1.60
2023-05-10T11:44:50.690Z,1.80
2023-05-10T11:47:24.607Z,1.85
2023-05-10T11:49:56.582Z,1.70
2023-05-10T11:52:28.379Z,1.80
2023-05-10T11:55:19.345Z,1.58
2023-05-10T11:58:02.914Z,1.38
2023-05-10T12:00:34.838Z,2.10
2023-05-10T12:03:07.506Z,1.90
2023-05-10T12:05:43.129Z,1.73
2023-05-10T12:08:16.545Z,1.90
2023-05-10T12:10:51.971Z,2.05
2023-05-10T12:13:26.248Z,2.35
2023-05-10T12:16:13.536Z,2.20
2023-05-10T12:18:53.561Z,2.88
2023-05-10T12:21:31.686Z,6.57
2023-05-10T12:24:05.850Z,2.10
2023-05-10T12:29:24.438Z,1.70
2023-05-10T12:32:13.099Z,44.33
2023-05-10T12:37:28.532Z,2.13
2023-05-10T12:40:00.614Z,1.63
2023-05-10T12:42:33.089Z,2.10
2023-05-10T12:45:06.642Z,1.60
2023-05-10T12:47:39.920Z,2.33
2023-05-10T12:50:13.257Z,2.42
2023-05-10T12:52:45.164Z,2.53
2023-05-10T12:55:19.718Z,2.83
2023-05-10T12:57:51.596Z,2.85
2023-05-10T13:00:23.847Z,4.55
2023-05-10T13:02:55.960Z,2.33
2023-05-10T13:05:27.863Z,2.95
2023-05-10T13:08:04.280Z,2.88
2023-05-10T13:10:36.237Z,2.40
2023-05-10T13:13:09.280Z,2.20
2023-05-10T13:15:41.095Z,2.30
2023-05-10T13:18:13.224Z,2.45
2023-05-10T13:20:45.434Z,2.42
2023-05-10T13:23:17.378Z,1.95
2023-05-10T13:25:53.110Z,2.20
2023-05-10T13:28:27.201Z,2.03
2023-05-10T13:31:01.001Z,2.20
2023-05-10T13:33:32.929Z,2.38
2023-05-10T13:36:05.047Z,2.60
2023-05-10T13:38:37.074Z,2.38
2023-05-10T13:41:08.912Z,2.20
2023-05-10T13:43:41.012Z,2.40
2023-05-10T13:46:12.847Z,2.40
2023-05-10T13:48:44.749Z,1.88
2023-05-10T13:51:16.557Z,2.30
2023-05-10T13:53:49.602Z,3.00
2023-05-10T13:56:21.455Z,2.80
2023-05-10T13:58:53.378Z,3.00
2023-05-10T14:01:25.465Z,2.80
2023-05-10T14:03:58.821Z,2.25
2023-05-10T14:06:30.624Z,2.58
2023-05-10T14:09:02.418Z,2.40
2023-05-10T14:11:34.246Z,2.67
2023-05-10T14:14:11.832Z,3.05
2023-05-10T14:16:45.439Z,3.08
2023-05-10T14:19:17.281Z,2.40
2023-05-10T14:21:49.230Z,2.38
2023-05-10T14:24:21.052Z,2.20
2023-05-10T14:26:55.041Z,2.97
2023-05-10T14:29:27.093Z,2.50
2023-05-10T14:32:01.187Z,4.80
2023-05-10T14:34:33.188Z,2.15
2023-05-10T14:37:05.446Z,2.30
2023-05-10T14:39:37.345Z,2.03
2023-05-10T14:42:09.674Z,3.38
2023-05-10T14:44:41.445Z,3.78
2023-05-10T14:47:13.263Z,1.90
2023-05-10T14:49:45.097Z,2.28
2023-05-10T14:52:17.551Z,3.00
2023-05-10T14:54:49.373Z,4.80
2023-05-10T14:57:21.283Z,4.88
2023-05-10T14:59:53.015Z,13.32
2023-05-10T15:02:25.523Z,5.20
2023-05-10T15:04:58.708Z,1.95
2023-05-10T15:07:32.290Z,3.67
2023-05-10T15:10:04.549Z,2.75
2023-05-10T15:12:36.297Z,2.15
2023-05-10T15:15:08.866Z,2.53
2023-05-10T15:17:40.650Z,3.95
2023-05-10T15:20:12.793Z,1.63
2023-05-10T15:22:44.611Z,1.15
2023-05-10T15:25:17.160Z,5.05
2023-05-10T15:27:49.152Z,3.80
2023-05-10T15:30:20.961Z,1.45
2023-05-10T15:32:53.090Z,1.45
2023-05-10T15:35:25.045Z,1.40
2023-05-10T15:37:56.834Z,1.10
2023-05-10T15:40:28.717Z,1.35
2023-05-10T15:43:00.466Z,1.38
2023-05-10T15:45:32.330Z,1.30
2023-05-10T15:48:04.507Z,1.40
2023-05-10T15:50:36.577Z,1.35
2023-05-10T15:53:08.515Z,1.67
2023-05-10T15:55:40.542Z,1.70
2023-05-10T15:58:12.452Z,1.40
2023-05-10T16:00:44.491Z,1.60
2023-05-10T16:03:16.455Z,1.92
2023-05-10T16:05:48.523Z,1.80
2023-05-10T16:08:20.409Z,1.70
2023-05-10T16:10:52.545Z,1.70
2023-05-10T16:13:24.559Z,1.60
2023-05-10T16:15:58.192Z,1.70
2023-05-10T16:18:30.326Z,1.70
2023-05-10T16:21:02.418Z,1.50
2023-05-10T16:23:34.311Z,1.70
2023-05-10T16:26:06.156Z,1.77
2023-05-10T16:28:40.404Z,2.00
2023-05-10T16:31:13.014Z,1.98
2023-05-10T16:33:45.152Z,2.70
2023-05-10T16:36:17.106Z,2.85
2023-05-10T16:38:49.048Z,2.50
2023-05-10T16:41:21.381Z,2.20
2023-05-10T16:43:53.624Z,2.40
2023-05-10T16:46:25.508Z,2.05
2023-05-10T16:48:57.686Z,2.20
2023-05-10T16:51:29.606Z,2.28
2023-05-10T16:54:01.558Z,2.55
2023-05-10T16:56:33.389Z,2.90
2023-05-10T16:59:05.903Z,3.13
2023-05-10T17:01:37.793Z,2.80
2023-05-10T17:04:09.673Z,3.00
2023-05-10T17:06:41.660Z,2.83
2023-05-10T17:09:13.718Z,3.17
2023-05-10T17:11:46.664Z,2.80
2023-05-10T17:14:18.519Z,3.25
2023-05-10T17:16:52.747Z,2.92
2023-05-10T17:19:26.259Z,3.00
2023-05-10T17:21:58.398Z,2.70
2023-05-10T17:24:31.160Z,3.03
2023-05-10T17:27:03.679Z,3.60
2023-05-10T17:29:35.710Z,3.70
2023-05-10T17:32:09.169Z,3.53
2023-05-10T17:34:41.259Z,3.75
2023-05-10T17:37:13.244Z,4.35
2023-05-10T17:39:45.206Z,4.10
2023-05-10T17:42:20.459Z,4.75
2023-05-10T17:44:52.318Z,4.40
2023-05-10T17:47:24.178Z,3.75
2023-05-10T17:49:56.090Z,3.97
2023-05-10T17:52:31.361Z,3.95
2023-05-10T17:55:05.194Z,3.53
2023-05-10T17:57:38.787Z,4.57
2023-05-10T18:00:11.416Z,4.43
2023-05-10T18:02:43.423Z,4.38
2023-05-10T18:05:15.677Z,4.05
2023-05-10T18:07:47.929Z,3.30
2023-05-10T18:10:19.784Z,6.20
2023-05-10T18:12:52.598Z,3.95
2023-05-10T18:15:25.180Z,4.20
2023-05-10T18:17:57.334Z,4.45
2023-05-10T18:20:29.177Z,4.50
2023-05-10T18:23:01.243Z,4.50
2023-05-10T18:25:33.242Z,4.50
2023-05-10T18:28:05.117Z,4.90
2023-05-10T18:30:37.355Z,4.97
2023-05-10T18:33:11.652Z,5.57
2023-05-10T18:35:45.436Z,6.18
2023-05-10T18:38:17.558Z,5.75
2023-05-10T18:40:52.596Z,6.18
2023-05-10T18:43:24.499Z,6.00
2023-05-10T18:45:57.325Z,6.63
2023-05-10T18:48:29.401Z,14.35
2023-05-10T18:51:01.343Z,9.88
2023-05-10T18:53:36.161Z,7.97
2023-05-10T18:56:10.470Z,8.02
2023-05-10T18:58:46.151Z,8.60
2023-05-10T19:01:18.072Z,8.63
2023-05-10T19:03:55.131Z,9.70
2023-05-10T19:06:27.896Z,9.68
2023-05-10T19:09:00.551Z,9.73
2023-05-10T19:11:34.483Z,10.40
2023-05-10T19:14:06.578Z,12.27
2023-05-10T19:16:42.635Z,13.63
2023-05-10T19:19:20.621Z,11.88
2023-05-10T19:21:53.162Z,12.02
2023-05-10T19:24:25.960Z,13.98
2023-05-10T19:26:59.267Z,13.20
2023-05-10T19:29:31.643Z,13.60
2023-05-10T19:32:03.634Z,14.20
2023-05-10T19:34:38.570Z,12.98
2023-05-10T19:37:10.445Z,13.85
2023-05-10T19:39:42.300Z,57.03
2023-05-10T19:42:14.278Z,14.35
2023-05-10T19:44:47.250Z,15.40
2023-05-10T19:47:19.318Z,14.27
2023-05-10T19:49:52.174Z,18.40
2023-05-10T19:52:25.414Z,19.13
2023-05-10T19:54:57.544Z,16.23
2023-05-10T19:57:30.476Z,23.70
2023-05-10T20:00:04.435Z,19.30
2023-05-10T20:02:43.249Z,23.53
2023-05-10T20:05:15.402Z,17.05
2023-05-10T20:07:47.982Z,20.10
2023-05-10T20:10:20.964Z,25.40
2023-05-10T20:12:54.833Z,24.92
2023-05-10T20:15:29.816Z,26.75
2023-05-10T20:18:04.578Z,25.75
2023-05-10T20:20:37.648Z,25.17
2023-05-10T20:23:10.841Z,20.42
2023-05-10T20:25:42.915Z,69.03
2023-05-10T20:28:15.723Z,31.25
2023-05-10T20:30:47.839Z,22.02
2023-05-10T20:33:20.817Z,20.83
2023-05-10T20:35:53.903Z,20.75
2023-05-10T20:38:26.204Z,19.42
2023-05-10T20:40:58.876Z,20.20
2023-05-10T20:43:30.920Z,20.45
2023-05-10T20:46:05.729Z,21.08
2023-05-10T20:48:37.808Z,21.27
2023-05-10T20:51:11.010Z,71.32
2023-05-10T20:53:43.075Z,22.73
2023-05-10T20:56:15.485Z,23.25
2023-05-10T20:58:47.619Z,22.55
2023-05-10T21:01:19.570Z,23.33
2023-05-10T21:03:51.464Z,24.42
2023-05-10T21:06:23.390Z,24.08
2023-05-10T21:08:55.281Z,23.83
2023-05-10T21:11:27.381Z,22.80
2023-05-10T21:13:59.215Z,23.38
2023-05-10T21:16:31.980Z,23.48
2023-05-10T21:19:03.969Z,22.38
2023-05-10T21:21:35.928Z,22.65
2023-05-10T21:24:07.930Z,22.13
2023-05-10T21:26:40.061Z,16.45
2023-05-10T21:29:12.432Z,9.38
2023-05-10T21:31:44.351Z,5.65
2023-05-10T21:34:17.945Z,3.15
2023-05-10T21:36:50.399Z,1.92
2023-05-10T21:39:22.640Z,2.03
2023-05-10T21:41:54.666Z,1.80
2023-05-10T21:44:26.540Z,1.73
2023-05-10T21:46:58.491Z,1.92
2023-05-10T21:49:31.427Z,1.60
2023-05-10T21:52:03.353Z,1.50
2023-05-10T21:54:35.387Z,1.40
2023-05-10T21:57:07.330Z,1.35
2023-05-10T21:59:39.977Z,1.40
2023-05-10T22:02:11.985Z,1.40
2023-05-10T22:04:43.838Z,2.03
2023-05-10T22:07:16.921Z,2.10
2023-05-10T22:09:48.871Z,1.45
2023-05-10T22:12:20.694Z,1.60
2023-05-10T22:15:06.441Z,1.50
2023-05-10T22:17:41.704Z,1.13
2023-05-10T22:20:13.823Z,1.20
2023-05-10T22:22:46.162Z,3.10
2023-05-10T22:25:19.069Z,1.60
2023-05-10T22:27:50.994Z,1.90
2023-05-10T22:30:23.790Z,1.85
2023-05-10T22:32:57.050Z,1.50
2023-05-10T22:35:29.016Z,1.83
2023-05-10T22:38:01.007Z,1.48
2023-05-10T22:40:33.094Z,1.30
2023-05-10T22:43:05.166Z,1.40
2023-05-10T22:45:37.076Z,1.65
2023-05-10T22:48:09.587Z,1.30
2023-05-10T22:50:41.577Z,1.10
2023-05-10T22:53:13.385Z,1.13
2023-05-10T22:55:45.569Z,1.10
2023-05-10T22:58:18.037Z,1.20
2023-05-10T23:00:49.942Z,1.10
2023-05-10T23:03:21.986Z,0.90
2023-05-10T23:05:53.901Z,0.90
2023-05-10T23:08:25.773Z,0.60
2023-05-10T23:10:57.603Z,0.95
2023-05-10T23:13:29.592Z,1.00
2023-05-10T23:16:07.694Z,1.10
2023-05-10T23:18:39.802Z,0.80
2023-05-10T23:21:12.829Z,0.77
2023-05-10T23:23:44.753Z,0.47
2023-05-10T23:26:16.587Z,0.50
2023-05-10T23:28:48.653Z,0.30
2023-05-10T23:31:20.569Z,0.45
2023-05-10T23:33:52.471Z,0.40
2023-05-10T23:36:24.354Z,0.30
2023-05-10T23:38:56.297Z,0.20
2023-05-10T23:41:28.176Z,0.20
2023-05-10T23:44:00.525Z,0.20
2023-05-10T23:46:32.600Z,0.20
2023-05-10T23:49:04.520Z,0.50
2023-05-10T23:51:36.363Z,0.30
2023-05-10T23:54:08.706Z,0.30
2023-05-10T23:56:40.637Z,0.30
2023-05-10T23:59:12.481Z,0.20
